createdAt,value
2019-03-27T00:01:17.979Z,19.67
2019-03-27T00:03:46.231Z,19.30
2019-03-27T00:06:14.520Z,17.98
2019-03-27T00:08:42.807Z,17.82
2019-03-27T00:11:11.058Z,19.15
2019-03-27T00:13:39.386Z,17.25
2019-03-27T00:16:08.941Z,20.55
2019-03-27T00:18:37.195Z,18.85
2019-03-27T00:21:07.854Z,20.85
2019-03-27T00:23:36.188Z,19.27
2019-03-27T00:26:04.469Z,21.10
2019-03-27T00:28:32.779Z,21.57
2019-03-27T00:31:01.042Z,21.55
2019-03-27T00:33:29.329Z,20.85
2019-03-27T00:35:57.586Z,21.93
2019-03-27T00:38:25.926Z,21.27
2019-03-27T00:40:54.193Z,22.40
2019-03-27T00:43:24.099Z,22.15
2019-03-27T00:45:52.402Z,21.62
2019-03-27T00:48:20.685Z,20.52
2019-03-27T00:50:49.034Z,20.35
2019-03-27T00:53:17.357Z,21.85
2019-03-27T00:55:45.612Z,21.50
2019-03-27T00:58:13.996Z,23.12
2019-03-27T01:00:48.224Z,25.60
2019-03-27T01:03:16.472Z,26.68
2019-03-27T01:05:44.747Z,22.20
2019-03-27T01:08:12.993Z,25.57
2019-03-27T01:10:41.264Z,25.10
2019-03-27T01:13:12.674Z,26.35
2019-03-27T01:15:41.006Z,27.42
2019-03-27T01:18:09.334Z,28.77
2019-03-27T01:20:37.622Z,25.68
2019-03-27T01:23:05.939Z,27.07
2019-03-27T01:25:34.473Z,27.02
2019-03-27T01:28:08.840Z,25.68
2019-03-27T01:30:32.774Z,24.75
2019-03-27T01:33:01.081Z,26.48
2019-03-27T01:35:29.313Z,27.37
2019-03-27T01:37:57.627Z,23.12
2019-03-27T01:40:25.960Z,25.52
2019-03-27T01:42:54.203Z,20.92
2019-03-27T01:45:22.496Z,25.08
2019-03-27T01:47:53.411Z,23.35
2019-03-27T01:50:21.728Z,23.52
2019-03-27T01:52:50.047Z,23.67
2019-03-27T01:55:18.308Z,21.95
2019-03-27T01:57:46.565Z,21.95
2019-03-27T02:00:14.890Z,20.75
2019-03-27T02:02:45.787Z,19.80
2019-03-27T02:05:14.045Z,23.75
2019-03-27T02:07:42.402Z,19.65
2019-03-27T02:10:10.839Z,21.10
2019-03-27T02:12:39.171Z,23.57
2019-03-27T02:15:08.000Z,24.20
2019-03-27T02:17:36.258Z,23.27
2019-03-27T02:20:06.274Z,25.08
2019-03-27T02:22:34.581Z,21.27
2019-03-27T02:25:02.878Z,23.05
2019-03-27T02:27:31.233Z,27.20
2019-03-27T02:29:59.551Z,23.40
2019-03-27T02:32:27.806Z,24.92
2019-03-27T02:34:56.103Z,27.75
2019-03-27T02:37:24.436Z,24.70
2019-03-27T02:39:52.713Z,25.45
2019-03-27T02:42:21.057Z,23.62
2019-03-27T02:44:49.297Z,26.35
2019-03-27T02:47:17.696Z,25.88
2019-03-27T02:49:45.981Z,25.15
2019-03-27T02:52:14.322Z,28.57
2019-03-27T02:54:42.579Z,25.10
2019-03-27T02:57:10.847Z,25.85
2019-03-27T02:59:39.110Z,28.90
2019-03-27T03:02:07.434Z,28.95
2019-03-27T03:04:35.751Z,29.32
2019-03-27T03:07:04.018Z,28.05
2019-03-27T03:09:32.354Z,29.85
2019-03-27T03:12:00.632Z,31.93
2019-03-27T03:14:28.978Z,28.77
2019-03-27T03:16:57.303Z,29.10
2019-03-27T03:19:25.546Z,31.95
2019-03-27T03:21:53.861Z,28.52
2019-03-27T03:24:22.223Z,30.50
2019-03-27T03:26:51.565Z,30.60
2019-03-27T03:29:20.088Z,29.10
2019-03-27T03:31:48.368Z,31.17
2019-03-27T03:34:16.729Z,27.70
2019-03-27T03:36:45.002Z,27.02
2019-03-27T03:39:13.256Z,32.58
2019-03-27T03:41:41.520Z,31.75
2019-03-27T03:44:09.791Z,27.27
2019-03-27T03:46:38.052Z,27.65
2019-03-27T03:49:06.299Z,29.20
2019-03-27T03:51:34.604Z,37.05
2019-03-27T03:54:03.354Z,34.60
2019-03-27T03:56:32.791Z,30.17
2019-03-27T03:59:01.233Z,30.72
2019-03-27T04:01:29.575Z,33.65
2019-03-27T04:03:57.851Z,29.95
2019-03-27T04:06:26.157Z,34.00
2019-03-27T04:08:54.533Z,33.78
2019-03-27T04:11:22.805Z,34.33
2019-03-27T04:13:51.046Z,33.67
2019-03-27T04:16:19.359Z,32.83
2019-03-27T04:18:47.666Z,34.65
2019-03-27T04:21:15.989Z,33.48
2019-03-27T04:23:44.307Z,31.30
2019-03-27T04:26:12.557Z,33.92
2019-03-27T04:28:40.840Z,36.85
2019-03-27T04:31:09.127Z,37.30
2019-03-27T04:33:37.393Z,33.15
2019-03-27T04:36:05.652Z,31.45
2019-03-27T04:38:33.972Z,33.35
2019-03-27T04:41:02.221Z,35.60
2019-03-27T04:43:30.508Z,34.92
2019-03-27T04:45:58.773Z,34.58
2019-03-27T04:48:27.056Z,33.10
2019-03-27T04:50:55.329Z,34.38
2019-03-27T04:53:23.620Z,30.97
2019-03-27T04:55:51.870Z,35.70
2019-03-27T04:58:20.139Z,34.80
2019-03-27T05:00:48.430Z,37.25
2019-03-27T05:03:16.721Z,40.33
2019-03-27T05:05:44.978Z,34.85
2019-03-27T05:08:13.231Z,36.15
2019-03-27T05:10:41.505Z,37.10
2019-03-27T05:13:09.758Z,34.45
2019-03-27T05:15:38.018Z,33.53
2019-03-27T05:18:06.273Z,38.33
2019-03-27T05:20:34.621Z,35.90
2019-03-27T05:23:02.894Z,37.93
2019-03-27T05:25:31.208Z,34.95
2019-03-27T05:27:59.468Z,37.25
2019-03-27T05:30:28.767Z,38.13
2019-03-27T05:32:57.426Z,48.92
2019-03-27T05:35:25.734Z,36.75
2019-03-27T05:37:54.086Z,35.40
2019-03-27T05:40:22.373Z,34.65
2019-03-27T05:43:00.633Z,34.33
2019-03-27T05:45:20.684Z,36.90
2019-03-27T05:47:58.851Z,36.93
2019-03-27T05:50:18.984Z,35.52
2019-03-27T05:52:47.244Z,36.83
2019-03-27T05:55:15.497Z,34.08
2019-03-27T05:57:43.751Z,37.70
2019-03-27T06:00:13.408Z,33.60
2019-03-27T06:02:41.680Z,35.73
2019-03-27T06:05:09.926Z,38.02
2019-03-27T06:07:38.221Z,32.55
2019-03-27T06:10:06.491Z,37.05
2019-03-27T06:12:34.727Z,36.77
2019-03-27T06:15:03.062Z,31.33
2019-03-27T06:17:31.320Z,33.75
2019-03-27T06:19:59.617Z,33.35
2019-03-27T06:22:27.873Z,31.80
2019-03-27T06:24:56.376Z,31.68
2019-03-27T06:27:24.662Z,34.98
2019-03-27T06:29:52.911Z,31.25
2019-03-27T06:32:21.179Z,30.97
2019-03-27T06:34:49.465Z,31.02
2019-03-27T06:37:17.711Z,30.08
2019-03-27T06:39:46.003Z,31.05
2019-03-27T06:42:14.273Z,31.82
2019-03-27T06:44:42.581Z,30.45
2019-03-27T06:47:10.852Z,31.60
2019-03-27T06:49:39.093Z,28.00
2019-03-27T06:52:07.699Z,33.83
2019-03-27T06:54:36.004Z,31.42
2019-03-27T06:57:04.407Z,30.72
2019-03-27T06:59:32.690Z,33.35
2019-03-27T07:02:01.033Z,35.10
2019-03-27T07:04:29.271Z,35.58
2019-03-27T07:06:57.888Z,37.88
2019-03-27T07:09:26.215Z,34.03
2019-03-27T07:11:54.466Z,34.35
2019-03-27T07:14:22.742Z,32.20
2019-03-27T07:16:52.995Z,27.17
2019-03-27T07:19:21.054Z,35.40
2019-03-27T07:21:49.344Z,33.45
2019-03-27T07:24:17.662Z,32.63
2019-03-27T07:26:45.932Z,32.42
2019-03-27T07:29:14.190Z,32.75
2019-03-27T07:31:42.517Z,34.73
2019-03-27T07:34:10.857Z,28.83
2019-03-27T07:36:39.128Z,33.63
2019-03-27T07:39:11.199Z,33.30
2019-03-27T07:41:37.420Z,38.15
2019-03-27T07:44:05.674Z,31.40
2019-03-27T07:46:33.952Z,35.60
2019-03-27T07:49:02.235Z,29.45
2019-03-27T07:51:30.611Z,31.95
2019-03-27T07:53:58.892Z,29.50
2019-03-27T07:56:27.157Z,28.55
2019-03-27T07:58:55.440Z,33.00
2019-03-27T08:01:23.789Z,30.25
2019-03-27T08:03:52.122Z,30.82
2019-03-27T08:06:20.455Z,29.45
2019-03-27T08:08:48.708Z,28.40
2019-03-27T08:11:16.992Z,32.55
2019-03-27T08:13:45.275Z,31.42
2019-03-27T08:16:13.652Z,35.17
2019-03-27T08:18:41.959Z,31.42
2019-03-27T08:21:10.281Z,30.95
2019-03-27T08:23:38.567Z,30.43
2019-03-27T08:26:06.833Z,33.33
2019-03-27T08:28:35.076Z,33.85
2019-03-27T08:31:03.462Z,31.93
2019-03-27T08:33:31.895Z,31.45
2019-03-27T08:36:00.178Z,35.63
2019-03-27T08:38:28.552Z,33.85
2019-03-27T08:40:56.878Z,35.70
2019-03-27T08:43:25.700Z,34.35
2019-03-27T08:45:54.500Z,36.85
2019-03-27T08:48:23.090Z,41.95
2019-03-27T08:50:51.545Z,43.20
2019-03-27T08:53:19.935Z,33.83
2019-03-27T08:55:48.285Z,37.58
2019-03-27T08:58:16.674Z,36.95
2019-03-27T09:00:49.364Z,38.40
2019-03-27T09:03:17.600Z,37.78
2019-03-27T09:05:45.860Z,37.38
2019-03-27T09:08:14.512Z,34.85
2019-03-27T09:10:42.890Z,37.90
2019-03-27T09:13:11.197Z,38.50
2019-03-27T09:15:39.483Z,42.25
2019-03-27T09:18:07.765Z,39.88
2019-03-27T09:20:36.169Z,38.45
2019-03-27T09:23:04.440Z,39.20
2019-03-27T09:25:32.853Z,37.85
2019-03-27T09:28:01.322Z,36.20
2019-03-27T09:30:29.615Z,37.25
2019-03-27T09:32:58.009Z,39.67
2019-03-27T09:35:26.459Z,35.92
2019-03-27T09:37:54.891Z,33.42
2019-03-27T09:40:23.146Z,36.83
2019-03-27T09:42:51.494Z,31.02
2019-03-27T09:45:19.791Z,33.35
2019-03-27T09:47:48.080Z,35.83
2019-03-27T09:50:16.718Z,36.95
2019-03-27T09:52:45.486Z,34.38
2019-03-27T09:55:14.060Z,33.15
2019-03-27T09:57:42.472Z,37.17
2019-03-27T10:00:10.947Z,37.98
2019-03-27T10:02:39.295Z,27.55
2019-03-27T10:05:07.608Z,25.95
2019-03-27T10:07:35.892Z,26.23
2019-03-27T10:10:05.277Z,25.52
2019-03-27T10:12:33.596Z,25.65
2019-03-27T10:15:02.052Z,28.75
2019-03-27T10:17:30.392Z,28.70
2019-03-27T10:20:03.682Z,27.42
2019-03-27T10:22:28.698Z,29.50
2019-03-27T10:24:56.986Z,29.92
2019-03-27T10:27:25.326Z,25.55
2019-03-27T10:29:53.656Z,24.52
2019-03-27T10:32:21.953Z,25.27
2019-03-27T10:34:50.199Z,26.77
2019-03-27T10:37:18.469Z,27.55
2019-03-27T10:39:46.806Z,26.02
2019-03-27T10:42:15.157Z,25.92
2019-03-27T10:44:43.555Z,24.92
2019-03-27T10:47:11.952Z,22.48
2019-03-27T10:49:40.358Z,22.75
2019-03-27T10:52:08.757Z,23.75
2019-03-27T10:54:37.029Z,22.22
2019-03-27T10:57:05.362Z,22.17
2019-03-27T10:59:33.654Z,24.10
2019-03-27T11:02:02.081Z,23.35
2019-03-27T11:04:32.110Z,23.20
2019-03-27T11:07:00.734Z,22.75
2019-03-27T11:09:29.022Z,24.25
2019-03-27T11:11:57.328Z,22.25
2019-03-27T11:14:37.360Z,23.65
2019-03-27T11:16:56.502Z,21.42
2019-03-27T11:19:24.777Z,19.48
2019-03-27T11:21:53.116Z,24.18
2019-03-27T11:24:21.385Z,20.10
2019-03-27T11:26:49.659Z,21.48
2019-03-27T11:29:17.996Z,22.77
2019-03-27T11:31:46.379Z,23.55
2019-03-27T11:34:14.697Z,21.00
2019-03-27T11:36:43.054Z,20.57
2019-03-27T11:39:14.164Z,24.32
2019-03-27T11:41:42.545Z,23.65
2019-03-27T11:44:12.902Z,22.05
2019-03-27T11:46:41.293Z,24.05
2019-03-27T11:49:09.810Z,22.17
2019-03-27T11:51:38.089Z,20.02
2019-03-27T11:54:06.364Z,20.97
2019-03-27T11:56:34.621Z,21.05
2019-03-27T11:59:03.065Z,20.92
2019-03-27T12:01:40.550Z,22.35
2019-03-27T12:04:01.453Z,21.60
2019-03-27T12:06:29.786Z,22.58
2019-03-27T12:08:58.050Z,21.68
2019-03-27T12:11:26.418Z,19.50
2019-03-27T12:13:54.717Z,21.68
2019-03-27T12:16:23.040Z,20.30
2019-03-27T12:18:51.449Z,20.72
2019-03-27T12:21:21.415Z,18.02
2019-03-27T12:23:49.783Z,18.80
2019-03-27T12:26:18.084Z,21.80
2019-03-27T12:28:46.339Z,19.75
2019-03-27T12:31:14.644Z,19.95
2019-03-27T12:33:42.972Z,20.40
2019-03-27T12:36:11.272Z,19.67
2019-03-27T12:38:39.860Z,20.35
2019-03-27T12:41:08.177Z,19.25
2019-03-27T12:43:36.487Z,22.27
2019-03-27T12:46:04.765Z,21.17
2019-03-27T12:48:33.133Z,18.80
2019-03-27T12:51:11.991Z,18.05
2019-03-27T12:53:31.574Z,20.92
2019-03-27T12:56:00.179Z,19.02
2019-03-27T12:58:28.535Z,17.42
2019-03-27T13:00:56.913Z,19.40
2019-03-27T13:03:25.253Z,16.48
2019-03-27T13:05:53.606Z,17.17
2019-03-27T13:08:21.935Z,18.30
2019-03-27T13:10:50.296Z,19.37
2019-03-27T13:13:18.630Z,16.97
2019-03-27T13:15:46.976Z,17.52
2019-03-27T13:18:15.318Z,16.97
2019-03-27T13:20:43.565Z,16.15
2019-03-27T13:23:11.815Z,16.75
2019-03-27T13:25:40.108Z,14.93
2019-03-27T13:28:08.396Z,14.65
2019-03-27T13:30:36.665Z,14.60
2019-03-27T13:33:05.122Z,15.25
2019-03-27T13:35:33.513Z,13.50
2019-03-27T13:38:04.389Z,13.90
2019-03-27T13:40:32.654Z,16.25
2019-03-27T13:43:00.961Z,14.15
2019-03-27T13:45:29.287Z,14.63
2019-03-27T13:47:57.595Z,13.13
2019-03-27T13:50:25.926Z,13.48
2019-03-27T13:52:54.212Z,13.70
2019-03-27T13:55:22.497Z,14.03
2019-03-27T13:57:50.769Z,12.93
2019-03-27T14:00:19.163Z,11.73
2019-03-27T14:02:47.446Z,13.50
2019-03-27T14:05:15.815Z,14.35
2019-03-27T14:07:44.139Z,14.73
2019-03-27T14:10:12.537Z,13.13
2019-03-27T14:12:40.923Z,15.75
2019-03-27T14:15:09.684Z,14.15
2019-03-27T14:17:37.941Z,15.32
2019-03-27T14:20:08.723Z,16.87
2019-03-27T14:22:37.093Z,15.05
2019-03-27T14:25:07.196Z,15.93
2019-03-27T14:27:35.582Z,14.50
2019-03-27T14:30:05.838Z,12.98
2019-03-27T14:32:34.073Z,13.98
2019-03-27T14:35:02.514Z,14.20
2019-03-27T14:37:30.763Z,14.45
2019-03-27T14:39:59.099Z,12.30
2019-03-27T14:42:27.532Z,14.95
2019-03-27T14:44:55.913Z,17.25
2019-03-27T14:47:24.296Z,21.23
2019-03-27T14:49:52.633Z,18.35
2019-03-27T14:52:20.890Z,14.85
2019-03-27T14:54:51.563Z,14.60
2019-03-27T14:57:19.245Z,13.00
2019-03-27T14:59:47.571Z,13.35
2019-03-27T15:02:16.051Z,14.15
2019-03-27T15:04:44.316Z,13.25
2019-03-27T15:07:12.619Z,13.65
2019-03-27T15:09:40.974Z,14.23
2019-03-27T15:12:09.303Z,13.18
2019-03-27T15:14:37.732Z,13.83
2019-03-27T15:17:06.071Z,12.68
2019-03-27T15:19:34.421Z,23.65
2019-03-27T15:22:02.670Z,22.90
2019-03-27T15:24:33.559Z,16.95
2019-03-27T15:27:01.813Z,16.73
2019-03-27T15:29:30.106Z,12.45
2019-03-27T15:31:58.460Z,13.10
2019-03-27T15:34:26.800Z,12.30
2019-03-27T15:36:55.075Z,13.05
2019-03-27T15:39:23.471Z,13.32
2019-03-27T15:41:51.811Z,11.60
2019-03-27T15:44:20.150Z,15.08
2019-03-27T15:46:48.492Z,14.33
2019-03-27T15:49:16.761Z,14.25
2019-03-27T15:51:45.202Z,11.33
2019-03-27T15:54:13.609Z,17.35
2019-03-27T15:56:41.826Z,14.28
2019-03-27T15:59:10.127Z,13.75
2019-03-27T16:01:38.392Z,13.53
2019-03-27T16:04:06.716Z,17.17
2019-03-27T16:06:34.965Z,13.70
2019-03-27T16:09:04.511Z,11.93
2019-03-27T16:11:39.703Z,11.80
2019-03-27T16:14:07.975Z,11.22
2019-03-27T16:16:36.217Z,12.55
2019-03-27T16:19:04.461Z,13.62
2019-03-27T16:21:32.732Z,11.53
2019-03-27T16:24:06.709Z,10.85
2019-03-27T16:26:30.975Z,19.37
2019-03-27T16:28:59.227Z,15.93
2019-03-27T16:31:27.506Z,14.38
2019-03-27T16:33:55.766Z,13.70
2019-03-27T16:36:24.020Z,14.68
2019-03-27T16:38:53.602Z,13.38
2019-03-27T16:41:21.918Z,14.53
2019-03-27T16:43:50.269Z,11.97
2019-03-27T16:46:18.986Z,16.12
2019-03-27T16:48:51.131Z,13.98
2019-03-27T16:51:19.432Z,13.25
2019-03-27T16:53:51.118Z,12.98
2019-03-27T16:56:19.949Z,12.13
2019-03-27T16:58:48.306Z,10.50
2019-03-27T17:01:16.630Z,10.08
2019-03-27T17:03:44.872Z,10.40
2019-03-27T17:06:13.162Z,9.23
2019-03-27T17:08:41.436Z,13.25
2019-03-27T17:11:09.711Z,9.70
2019-03-27T17:13:37.980Z,10.50
2019-03-27T17:16:06.229Z,12.37
2019-03-27T17:18:34.644Z,11.53
2019-03-27T17:21:02.874Z,9.20
2019-03-27T17:23:31.135Z,11.97
2019-03-27T17:25:59.805Z,10.13
2019-03-27T17:28:28.353Z,9.50
2019-03-27T17:30:56.616Z,12.50
2019-03-27T17:33:24.906Z,10.72
2019-03-27T17:35:53.240Z,10.93
2019-03-27T17:38:21.475Z,10.93
2019-03-27T17:40:49.781Z,12.68
2019-03-27T17:43:18.025Z,10.88
2019-03-27T17:45:46.283Z,11.10
2019-03-27T17:48:14.546Z,11.83
2019-03-27T17:50:42.862Z,11.40
2019-03-27T17:53:11.134Z,12.78
2019-03-27T17:55:39.881Z,10.85
2019-03-27T17:58:08.164Z,10.32
2019-03-27T18:00:48.139Z,10.93
2019-03-27T18:03:16.370Z,10.65
2019-03-27T18:05:46.244Z,13.83
2019-03-27T18:08:17.700Z,12.85
2019-03-27T18:10:46.122Z,12.95
2019-03-27T18:13:14.368Z,12.93
2019-03-27T18:15:42.632Z,12.63
2019-03-27T18:18:10.889Z,15.45
2019-03-27T18:20:39.636Z,15.00
2019-03-27T18:23:08.230Z,12.98
2019-03-27T18:25:36.545Z,14.87
2019-03-27T18:28:04.814Z,14.10
2019-03-27T18:30:33.081Z,16.10
2019-03-27T18:33:01.405Z,10.82
2019-03-27T18:35:29.671Z,13.48
2019-03-27T18:38:00.586Z,11.30
2019-03-27T18:40:28.839Z,12.68
2019-03-27T18:42:57.113Z,12.43
2019-03-27T18:45:25.358Z,20.10
2019-03-27T18:47:53.662Z,14.40
2019-03-27T18:50:22.434Z,15.20
2019-03-27T18:52:50.759Z,15.25
2019-03-27T18:55:26.233Z,15.88
2019-03-27T18:57:59.896Z,18.05
2019-03-27T19:00:20.648Z,15.25
2019-03-27T19:02:48.981Z,16.82
2019-03-27T19:05:17.214Z,17.65
2019-03-27T19:07:45.511Z,18.37
2019-03-27T19:10:17.088Z,14.80
2019-03-27T19:12:45.381Z,15.32
2019-03-27T19:15:13.795Z,15.63
2019-03-27T19:17:42.070Z,20.92
2019-03-27T19:20:10.401Z,67.78
2019-03-27T19:22:38.658Z,37.17
2019-03-27T19:25:07.496Z,26.75
2019-03-27T19:27:35.873Z,20.75
2019-03-27T19:30:08.634Z,19.52
2019-03-27T19:32:36.996Z,20.65
2019-03-27T19:35:05.645Z,20.80
2019-03-27T19:37:33.922Z,24.07
2019-03-27T19:40:02.168Z,22.75
2019-03-27T19:42:30.490Z,39.15
2019-03-27T19:44:58.828Z,104.55
2019-03-27T19:47:27.218Z,63.45
2019-03-27T19:49:55.449Z,35.45
2019-03-27T19:52:23.692Z,24.23
2019-03-27T19:54:51.946Z,19.67
2019-03-27T19:57:20.226Z,17.30
2019-03-27T19:59:48.571Z,21.30
2019-03-27T20:02:16.977Z,21.17
2019-03-27T20:04:45.266Z,17.87
2019-03-27T20:07:13.521Z,17.87
2019-03-27T20:09:43.378Z,22.42
2019-03-27T20:12:11.685Z,21.87
2019-03-27T20:14:42.822Z,18.25
2019-03-27T20:17:14.807Z,20.82
2019-03-27T20:19:42.878Z,21.27
2019-03-27T20:22:11.154Z,20.77
2019-03-27T20:24:41.104Z,21.37
2019-03-27T20:27:09.371Z,22.37
2019-03-27T20:29:37.641Z,22.60
2019-03-27T20:32:06.018Z,24.27
2019-03-27T20:34:34.348Z,23.20
2019-03-27T20:37:05.785Z,22.58
2019-03-27T20:39:34.436Z,22.52
2019-03-27T20:42:02.762Z,26.40
2019-03-27T20:44:31.078Z,22.70
2019-03-27T20:46:59.370Z,20.40
2019-03-27T20:49:27.598Z,21.42
2019-03-27T20:51:55.921Z,19.55
2019-03-27T20:54:24.187Z,20.92
2019-03-27T20:56:52.450Z,20.37
2019-03-27T20:59:20.753Z,20.45
2019-03-27T21:01:48.996Z,19.70
2019-03-27T21:04:17.276Z,19.82
2019-03-27T21:06:47.166Z,21.95
2019-03-27T21:09:15.422Z,18.35
2019-03-27T21:11:43.691Z,19.65
2019-03-27T21:14:13.568Z,21.40
2019-03-27T21:16:44.666Z,20.43
2019-03-27T21:19:13.009Z,19.87
2019-03-27T21:21:42.092Z,18.90
2019-03-27T21:24:10.578Z,22.70
2019-03-27T21:26:38.898Z,20.02
2019-03-27T21:29:07.150Z,19.90
2019-03-27T21:31:35.403Z,20.57
2019-03-27T21:34:03.694Z,22.02
2019-03-27T21:36:41.077Z,20.10
2019-03-27T21:39:11.026Z,19.80
2019-03-27T21:41:39.378Z,19.92
2019-03-27T21:44:07.624Z,20.92
2019-03-27T21:46:35.899Z,21.05
2019-03-27T21:49:04.168Z,20.85
2019-03-27T21:51:32.507Z,21.25
2019-03-27T21:54:00.760Z,20.57
2019-03-27T21:56:29.014Z,21.95
2019-03-27T21:58:57.262Z,20.57
2019-03-27T22:01:25.504Z,22.50
2019-03-27T22:03:53.767Z,22.02
2019-03-27T22:06:22.030Z,22.00
2019-03-27T22:08:50.526Z,21.87
2019-03-27T22:11:18.796Z,25.05
2019-03-27T22:13:47.034Z,22.62
2019-03-27T22:16:15.394Z,24.43
2019-03-27T22:18:43.696Z,21.52
2019-03-27T22:21:11.942Z,23.75
2019-03-27T22:23:40.209Z,21.52
2019-03-27T22:26:08.489Z,22.32
2019-03-27T22:28:36.776Z,23.07
2019-03-27T22:31:06.665Z,23.90
2019-03-27T22:33:34.924Z,23.73
2019-03-27T22:36:03.154Z,23.35
2019-03-27T22:38:31.422Z,21.85
2019-03-27T22:40:59.675Z,23.40
2019-03-27T22:43:27.942Z,21.97
2019-03-27T22:45:56.218Z,21.33
2019-03-27T22:48:24.559Z,22.90
2019-03-27T22:50:52.987Z,23.52
2019-03-27T22:53:21.217Z,25.40
2019-03-27T22:55:50.642Z,22.10
2019-03-27T22:58:19.107Z,22.27
2019-03-27T23:00:48.654Z,23.07
2019-03-27T23:03:18.460Z,23.45
2019-03-27T23:05:46.926Z,21.90
2019-03-27T23:08:15.241Z,22.65
2019-03-27T23:10:43.578Z,22.10
2019-03-27T23:13:11.889Z,22.05
2019-03-27T23:15:41.566Z,23.15
2019-03-27T23:18:09.829Z,24.65
2019-03-27T23:20:38.180Z,24.10
2019-03-27T23:23:06.456Z,21.87
2019-03-27T23:25:34.983Z,22.37
2019-03-27T23:28:03.233Z,24.90
2019-03-27T23:30:32.333Z,23.83
2019-03-27T23:33:00.561Z,21.45
2019-03-27T23:35:28.909Z,23.67
2019-03-27T23:37:57.167Z,22.45
2019-03-27T23:40:25.433Z,21.48
2019-03-27T23:42:53.666Z,25.40
2019-03-27T23:45:21.924Z,22.07
2019-03-27T23:47:50.191Z,21.00
2019-03-27T23:50:18.441Z,21.62
2019-03-27T23:52:46.709Z,25.08
2019-03-27T23:55:14.954Z,21.73
2019-03-27T23:57:43.280Z,26.15
